sensor_id;sensor_type;location;lat;lon;timestamp;P1;durP1;ratioP1;P2;durP2;ratioP2
38603;SDS011;24924;50.054;8.790;2023-02-12T00:01:38;33.25;;;18.40;;
38603;SDS011;24924;50.054;8.790;2023-02-12T00:04:05;33.00;;;18.97;;
38603;SDS011;24924;50.054;8.790;2023-02-12T00:06:31;36.33;;;19.15;;
38603;SDS011;24924;50.054;8.790;2023-02-12T00:08:57;33.47;;;19.17;;
38603;SDS011;24924;50.054;8.790;2023-02-12T00:11:24;35.78;;;19.10;;
38603;SDS011;24924;50.054;8.790;2023-02-12T00:13:53;34.87;;;18.97;;
38603;SDS011;24924;50.054;8.790;2023-02-12T00:16:21;36.05;;;19.05;;
38603;SDS011;24924;50.054;8.790;2023-02-12T00:18:50;37.10;;;19.42;;
38603;SDS011;24924;50.054;8.790;2023-02-12T00:21:17;37.42;;;18.67;;
38603;SDS011;24924;50.054;8.790;2023-02-12T00:23:43;34.93;;;19.57;;
38603;SDS011;24924;50.054;8.790;2023-02-12T00:26:10;34.38;;;19.38;;
38603;SDS011;24924;50.054;8.790;2023-02-12T00:28:44;36.38;;;20.10;;
38603;SDS011;24924;50.054;8.790;2023-02-12T00:31:13;34.17;;;19.15;;
38603;SDS011;24924;50.054;8.790;2023-02-12T00:33:41;32.70;;;18.40;;
38603;SDS011;24924;50.054;8.790;2023-02-12T00:36:08;34.33;;;18.77;;
38603;SDS011;24924;50.054;8.790;2023-02-12T00:38:37;37.60;;;19.65;;
38603;SDS011;24924;50.054;8.790;2023-02-12T00:41:03;35.20;;;19.50;;
38603;SDS011;24924;50.054;8.790;2023-02-12T00:43:29;32.17;;;18.20;;
38603;SDS011;24924;50.054;8.790;2023-02-12T00:45:54;35.00;;;19.13;;
38603;SDS011;24924;50.054;8.790;2023-02-12T00:48:20;36.92;;;19.27;;
38603;SDS011;24924;50.054;8.790;2023-02-12T00:50:47;33.67;;;18.57;;
38603;SDS011;24924;50.054;8.790;2023-02-12T00:53:14;34.67;;;18.77;;
38603;SDS011;24924;50.054;8.790;2023-02-12T00:55:40;33.60;;;17.15;;
38603;SDS011;24924;50.054;8.790;2023-02-12T00:58:07;34.38;;;17.13;;
38603;SDS011;24924;50.054;8.790;2023-02-12T01:00:33;34.47;;;18.23;;
38603;SDS011;24924;50.054;8.790;2023-02-12T01:02:58;31.60;;;16.17;;
38603;SDS011;24924;50.054;8.790;2023-02-12T01:05:24;31.27;;;17.27;;
38603;SDS011;24924;50.054;8.790;2023-02-12T01:07:51;32.67;;;17.67;;
38603;SDS011;24924;50.054;8.790;2023-02-12T01:10:18;30.98;;;16.13;;
38603;SDS011;24924;50.054;8.790;2023-02-12T01:12:48;32.83;;;17.20;;
38603;SDS011;24924;50.054;8.790;2023-02-12T01:15:15;31.15;;;16.95;;
38603;SDS011;24924;50.054;8.790;2023-02-12T01:17:42;30.40;;;16.42;;
38603;SDS011;24924;50.054;8.790;2023-02-12T01:20:08;30.37;;;16.63;;
38603;SDS011;24924;50.054;8.790;2023-02-12T01:22:37;31.40;;;17.33;;
38603;SDS011;24924;50.054;8.790;2023-02-12T01:25:03;33.33;;;16.90;;
38603;SDS011;24924;50.054;8.790;2023-02-12T01:27:30;32.00;;;17.63;;
38603;SDS011;24924;50.054;8.790;2023-02-12T01:29:57;33.63;;;17.97;;
38603;SDS011;24924;50.054;8.790;2023-02-12T01:32:23;31.50;;;17.52;;
38603;SDS011;24924;50.054;8.790;2023-02-12T01:34:48;32.58;;;17.45;;
38603;SDS011;24924;50.054;8.790;2023-02-12T01:37:14;33.83;;;17.63;;
38603;SDS011;24924;50.054;8.790;2023-02-12T01:39:40;30.95;;;16.95;;
38603;SDS011;24924;50.054;8.790;2023-02-12T01:42:06;31.23;;;17.27;;
38603;SDS011;24924;50.054;8.790;2023-02-12T01:44:38;31.63;;;16.75;;
38603;SDS011;24924;50.054;8.790;2023-02-12T01:47:15;30.73;;;16.53;;
38603;SDS011;24924;50.054;8.790;2023-02-12T01:49:43;33.47;;;16.80;;
38603;SDS011;24924;50.054;8.790;2023-02-12T01:52:16;29.23;;;16.52;;
38603;SDS011;24924;50.054;8.790;2023-02-12T01:54:46;31.48;;;16.67;;
38603;SDS011;24924;50.054;8.790;2023-02-12T01:57:15;30.55;;;16.92;;
38603;SDS011;24924;50.054;8.790;2023-02-12T01:59:42;30.53;;;16.60;;
38603;SDS011;24924;50.054;8.790;2023-02-12T02:02:11;31.38;;;17.10;;
38603;SDS011;24924;50.054;8.790;2023-02-12T02:04:40;32.35;;;17.70;;
38603;SDS011;24924;50.054;8.790;2023-02-12T02:07:10;32.75;;;18.10;;
38603;SDS011;24924;50.054;8.790;2023-02-12T02:09:37;35.40;;;18.20;;
38603;SDS011;24924;50.054;8.790;2023-02-12T02:12:04;31.50;;;17.92;;
38603;SDS011;24924;50.054;8.790;2023-02-12T02:14:50;33.30;;;17.80;;
38603;SDS011;24924;50.054;8.790;2023-02-12T02:28:00;28.77;;;17.23;;
38603;SDS011;24924;50.054;8.790;2023-02-12T02:30:34;29.70;;;16.20;;
38603;SDS011;24924;50.054;8.790;2023-02-12T02:33:12;37.15;;;19.20;;
38603;SDS011;24924;50.054;8.790;2023-02-12T02:38:17;28.77;;;16.00;;
38603;SDS011;24924;50.054;8.790;2023-02-12T02:41:07;28.65;;;15.68;;
38603;SDS011;24924;50.054;8.790;2023-02-12T02:43:42;28.30;;;15.90;;
38603;SDS011;24924;50.054;8.790;2023-02-12T02:46:34;29.45;;;16.45;;
38603;SDS011;24924;50.054;8.790;2023-02-12T02:49:02;30.77;;;15.73;;
38603;SDS011;24924;50.054;8.790;2023-02-12T02:51:36;29.70;;;16.38;;
38603;SDS011;24924;50.054;8.790;2023-02-12T02:54:08;32.40;;;16.83;;
38603;SDS011;24924;50.054;8.790;2023-02-12T02:56:56;27.52;;;16.55;;
38603;SDS011;24924;50.054;8.790;2023-02-12T02:59:32;29.70;;;16.58;;
38603;SDS011;24924;50.054;8.790;2023-02-12T03:02:03;28.40;;;16.20;;
38603;SDS011;24924;50.054;8.790;2023-02-12T03:04:38;32.85;;;15.82;;
38603;SDS011;24924;50.054;8.790;2023-02-12T03:07:09;31.75;;;16.88;;
38603;SDS011;24924;50.054;8.790;2023-02-12T03:09:57;31.30;;;17.40;;
38603;SDS011;24924;50.054;8.790;2023-02-12T03:12:31;32.20;;;18.23;;
38603;SDS011;24924;50.054;8.790;2023-02-12T03:15:03;34.13;;;17.83;;
38603;SDS011;24924;50.054;8.790;2023-02-12T03:17:34;31.23;;;16.88;;
38603;SDS011;24924;50.054;8.790;2023-02-12T03:20:05;33.42;;;18.48;;
38603;SDS011;24924;50.054;8.790;2023-02-12T03:22:37;33.65;;;17.15;;
38603;SDS011;24924;50.054;8.790;2023-02-12T03:28:09;30.33;;;16.03;;
38603;SDS011;24924;50.054;8.790;2023-02-12T03:30:42;33.15;;;17.27;;
38603;SDS011;24924;50.054;8.790;2023-02-12T03:36:23;30.10;;;16.20;;
38603;SDS011;24924;50.054;8.790;2023-02-12T03:39:01;32.97;;;16.77;;
38603;SDS011;24924;50.054;8.790;2023-02-12T03:41:54;32.20;;;18.33;;
38603;SDS011;24924;50.054;8.790;2023-02-12T03:44:37;36.53;;;18.08;;
38603;SDS011;24924;50.054;8.790;2023-02-12T03:47:20;30.75;;;16.83;;
38603;SDS011;24924;50.054;8.790;2023-02-12T03:49:52;30.65;;;16.38;;
38603;SDS011;24924;50.054;8.790;2023-02-12T03:52:24;33.28;;;16.73;;
38603;SDS011;24924;50.054;8.790;2023-02-12T03:54:51;33.27;;;17.83;;
38603;SDS011;24924;50.054;8.790;2023-02-12T03:57:18;30.73;;;16.90;;
38603;SDS011;24924;50.054;8.790;2023-02-12T03:59:46;33.33;;;18.00;;
38603;SDS011;24924;50.054;8.790;2023-02-12T04:02:14;31.73;;;16.17;;
38603;SDS011;24924;50.054;8.790;2023-02-12T04:04:42;31.77;;;16.73;;
38603;SDS011;24924;50.054;8.790;2023-02-12T04:07:10;30.47;;;16.97;;
38603;SDS011;24924;50.054;8.790;2023-02-12T04:09:36;33.38;;;17.00;;
38603;SDS011;24924;50.054;8.790;2023-02-12T04:17:29;31.17;;;16.50;;
38603;SDS011;24924;50.054;8.790;2023-02-12T04:28:58;31.10;;;16.48;;
38603;SDS011;24924;50.054;8.790;2023-02-12T04:31:44;29.45;;;15.43;;
38603;SDS011;24924;50.054;8.790;2023-02-12T04:34:16;28.67;;;16.23;;
38603;SDS011;24924;50.054;8.790;2023-02-12T04:39:24;27.80;;;15.82;;
38603;SDS011;24924;50.054;8.790;2023-02-12T04:41:53;28.77;;;15.20;;
38603;SDS011;24924;50.054;8.790;2023-02-12T04:44:25;27.65;;;15.82;;
38603;SDS011;24924;50.054;8.790;2023-02-12T04:46:52;27.47;;;15.57;;
38603;SDS011;24924;50.054;8.790;2023-02-12T04:49:20;31.40;;;16.13;;
38603;SDS011;24924;50.054;8.790;2023-02-12T04:51:46;29.92;;;16.45;;
38603;SDS011;24924;50.054;8.790;2023-02-12T04:54:14;27.75;;;15.40;;
38603;SDS011;24924;50.054;8.790;2023-02-12T04:56:40;28.02;;;16.35;;
38603;SDS011;24924;50.054;8.790;2023-02-12T04:59:06;30.67;;;15.20;;
38603;SDS011;24924;50.054;8.790;2023-02-12T05:01:34;27.23;;;15.23;;
38603;SDS011;24924;50.054;8.790;2023-02-12T05:04:00;25.95;;;15.48;;
38603;SDS011;24924;50.054;8.790;2023-02-12T05:06:27;30.50;;;14.90;;
38603;SDS011;24924;50.054;8.790;2023-02-12T05:08:54;32.38;;;16.80;;
38603;SDS011;24924;50.054;8.790;2023-02-12T05:11:21;24.70;;;14.83;;
38603;SDS011;24924;50.054;8.790;2023-02-12T05:13:48;27.25;;;15.35;;
38603;SDS011;24924;50.054;8.790;2023-02-12T05:16:15;25.45;;;14.55;;
38603;SDS011;24924;50.054;8.790;2023-02-12T05:18:41;29.83;;;15.38;;
38603;SDS011;24924;50.054;8.790;2023-02-12T05:21:07;29.85;;;15.38;;
38603;SDS011;24924;50.054;8.790;2023-02-12T05:23:35;28.50;;;15.53;;
38603;SDS011;24924;50.054;8.790;2023-02-12T05:26:03;27.02;;;14.95;;
38603;SDS011;24924;50.054;8.790;2023-02-12T05:28:35;27.65;;;15.23;;
38603;SDS011;24924;50.054;8.790;2023-02-12T05:31:02;24.23;;;14.83;;
38603;SDS011;24924;50.054;8.790;2023-02-12T05:33:29;26.20;;;15.27;;
38603;SDS011;24924;50.054;8.790;2023-02-12T05:36:01;29.48;;;15.68;;
38603;SDS011;24924;50.054;8.790;2023-02-12T05:38:28;25.65;;;14.60;;
38603;SDS011;24924;50.054;8.790;2023-02-12T05:40:53;27.47;;;15.03;;
38603;SDS011;24924;50.054;8.790;2023-02-12T05:43:24;25.90;;;14.32;;
38603;SDS011;24924;50.054;8.790;2023-02-12T05:45:50;24.10;;;14.25;;
38603;SDS011;24924;50.054;8.790;2023-02-12T05:48:16;23.23;;;14.27;;
38603;SDS011;24924;50.054;8.790;2023-02-12T05:50:42;24.38;;;14.43;;
38603;SDS011;24924;50.054;8.790;2023-02-12T05:53:07;24.17;;;14.00;;
38603;SDS011;24924;50.054;8.790;2023-02-12T05:55:33;25.92;;;13.50;;
38603;SDS011;24924;50.054;8.790;2023-02-12T05:57:59;23.77;;;13.50;;
38603;SDS011;24924;50.054;8.790;2023-02-12T06:00:25;22.67;;;13.70;;
38603;SDS011;24924;50.054;8.790;2023-02-12T06:02:50;30.63;;;14.67;;
38603;SDS011;24924;50.054;8.790;2023-02-12T06:05:16;23.50;;;14.38;;
38603;SDS011;24924;50.054;8.790;2023-02-12T06:07:42;27.08;;;14.23;;
38603;SDS011;24924;50.054;8.790;2023-02-12T06:10:08;21.83;;;13.47;;
38603;SDS011;24924;50.054;8.790;2023-02-12T06:12:35;22.60;;;14.27;;
38603;SDS011;24924;50.054;8.790;2023-02-12T06:15:01;26.27;;;13.83;;
38603;SDS011;24924;50.054;8.790;2023-02-12T06:17:27;27.50;;;14.87;;
38603;SDS011;24924;50.054;8.790;2023-02-12T06:19:53;27.02;;;15.10;;
38603;SDS011;24924;50.054;8.790;2023-02-12T06:22:19;24.80;;;14.55;;
38603;SDS011;24924;50.054;8.790;2023-02-12T06:24:44;27.93;;;15.70;;
38603;SDS011;24924;50.054;8.790;2023-02-12T06:27:10;27.90;;;15.50;;
38603;SDS011;24924;50.054;8.790;2023-02-12T06:29:36;27.20;;;15.63;;
38603;SDS011;24924;50.054;8.790;2023-02-12T06:32:02;30.92;;;16.73;;
38603;SDS011;24924;50.054;8.790;2023-02-12T06:34:28;30.42;;;16.83;;
38603;SDS011;24924;50.054;8.790;2023-02-12T06:36:54;30.33;;;17.25;;
38603;SDS011;24924;50.054;8.790;2023-02-12T06:39:19;29.93;;;17.30;;
38603;SDS011;24924;50.054;8.790;2023-02-12T06:41:45;30.50;;;16.95;;
38603;SDS011;24924;50.054;8.790;2023-02-12T06:44:12;29.83;;;17.27;;
38603;SDS011;24924;50.054;8.790;2023-02-12T06:46:38;30.25;;;18.20;;
38603;SDS011;24924;50.054;8.790;2023-02-12T06:49:04;33.70;;;17.73;;
38603;SDS011;24924;50.054;8.790;2023-02-12T06:51:30;33.95;;;18.63;;
38603;SDS011;24924;50.054;8.790;2023-02-12T06:53:56;34.40;;;17.87;;
38603;SDS011;24924;50.054;8.790;2023-02-12T06:56:23;30.75;;;17.77;;
38603;SDS011;24924;50.054;8.790;2023-02-12T06:58:52;36.47;;;18.08;;
38603;SDS011;24924;50.054;8.790;2023-02-12T07:01:21;33.92;;;17.77;;
38603;SDS011;24924;50.054;8.790;2023-02-12T07:03:50;34.15;;;19.38;;
38603;SDS011;24924;50.054;8.790;2023-02-12T07:06:18;40.40;;;21.03;;
38603;SDS011;24924;50.054;8.790;2023-02-12T07:08:45;38.60;;;20.77;;
38603;SDS011;24924;50.054;8.790;2023-02-12T07:11:11;42.33;;;22.27;;
38603;SDS011;24924;50.054;8.790;2023-02-12T07:13:38;40.92;;;23.17;;
38603;SDS011;24924;50.054;8.790;2023-02-12T07:16:08;41.63;;;23.02;;
38603;SDS011;24924;50.054;8.790;2023-02-12T07:18:37;43.87;;;23.50;;
38603;SDS011;24924;50.054;8.790;2023-02-12T07:21:04;45.63;;;25.10;;
38603;SDS011;24924;50.054;8.790;2023-02-12T07:23:32;45.75;;;25.55;;
38603;SDS011;24924;50.054;8.790;2023-02-12T07:25:59;48.13;;;25.52;;
38603;SDS011;24924;50.054;8.790;2023-02-12T07:28:27;45.47;;;25.77;;
38603;SDS011;24924;50.054;8.790;2023-02-12T07:30:53;45.10;;;25.53;;
38603;SDS011;24924;50.054;8.790;2023-02-12T07:33:19;53.08;;;26.38;;
38603;SDS011;24924;50.054;8.790;2023-02-12T07:35:44;47.58;;;26.80;;
38603;SDS011;24924;50.054;8.790;2023-02-12T07:38:11;48.97;;;25.60;;
38603;SDS011;24924;50.054;8.790;2023-02-12T07:40:36;53.80;;;27.57;;
38603;SDS011;24924;50.054;8.790;2023-02-12T07:43:03;51.55;;;27.35;;
38603;SDS011;24924;50.054;8.790;2023-02-12T07:45:33;49.10;;;27.23;;
38603;SDS011;24924;50.054;8.790;2023-02-12T07:47:59;52.67;;;28.30;;
38603;SDS011;24924;50.054;8.790;2023-02-12T07:50:24;53.85;;;27.98;;
38603;SDS011;24924;50.054;8.790;2023-02-12T07:52:50;49.67;;;26.73;;
38603;SDS011;24924;50.054;8.790;2023-02-12T07:55:16;47.90;;;25.65;;
38603;SDS011;24924;50.054;8.790;2023-02-12T07:57:42;49.38;;;26.55;;
38603;SDS011;24924;50.054;8.790;2023-02-12T08:00:08;50.70;;;27.08;;
38603;SDS011;24924;50.054;8.790;2023-02-12T08:02:37;52.20;;;28.33;;
38603;SDS011;24924;50.054;8.790;2023-02-12T08:05:03;52.38;;;27.20;;
38603;SDS011;24924;50.054;8.790;2023-02-12T08:07:28;52.30;;;25.47;;
38603;SDS011;24924;50.054;8.790;2023-02-12T08:09:54;55.65;;;26.58;;
38603;SDS011;24924;50.054;8.790;2023-02-12T08:12:20;54.03;;;27.17;;
38603;SDS011;24924;50.054;8.790;2023-02-12T08:14:48;51.70;;;26.13;;
38603;SDS011;24924;50.054;8.790;2023-02-12T08:17:13;57.13;;;28.02;;
38603;SDS011;24924;50.054;8.790;2023-02-12T08:19:39;51.70;;;28.87;;
38603;SDS011;24924;50.054;8.790;2023-02-12T08:22:04;53.20;;;28.92;;
38603;SDS011;24924;50.054;8.790;2023-02-12T08:24:31;50.73;;;25.87;;
38603;SDS011;24924;50.054;8.790;2023-02-12T08:26:57;56.80;;;28.45;;
38603;SDS011;24924;50.054;8.790;2023-02-12T08:29:24;57.63;;;28.33;;
38603;SDS011;24924;50.054;8.790;2023-02-12T08:31:56;56.83;;;29.20;;
38603;SDS011;24924;50.054;8.790;2023-02-12T08:34:24;58.25;;;29.10;;
38603;SDS011;24924;50.054;8.790;2023-02-12T08:36:55;61.22;;;29.08;;
38603;SDS011;24924;50.054;8.790;2023-02-12T08:39:23;60.35;;;28.40;;
38603;SDS011;24924;50.054;8.790;2023-02-12T08:41:50;53.35;;;28.48;;
38603;SDS011;24924;50.054;8.790;2023-02-12T08:44:18;54.87;;;27.73;;
38603;SDS011;24924;50.054;8.790;2023-02-12T08:46:45;52.03;;;26.80;;
38603;SDS011;24924;50.054;8.790;2023-02-12T08:49:13;56.65;;;27.20;;
38603;SDS011;24924;50.054;8.790;2023-02-12T08:51:43;52.28;;;27.35;;
38603;SDS011;24924;50.054;8.790;2023-02-12T08:54:11;55.50;;;27.33;;
38603;SDS011;24924;50.054;8.790;2023-02-12T08:56:38;56.20;;;27.33;;
38603;SDS011;24924;50.054;8.790;2023-02-12T08:59:05;56.28;;;28.33;;
38603;SDS011;24924;50.054;8.790;2023-02-12T09:01:32;58.60;;;28.67;;
38603;SDS011;24924;50.054;8.790;2023-02-12T09:04:02;58.00;;;29.17;;
38603;SDS011;24924;50.054;8.790;2023-02-12T09:06:30;60.30;;;28.73;;
38603;SDS011;24924;50.054;8.790;2023-02-12T09:08:57;65.60;;;29.67;;
38603;SDS011;24924;50.054;8.790;2023-02-12T09:11:24;63.67;;;29.55;;
38603;SDS011;24924;50.054;8.790;2023-02-12T09:13:58;66.68;;;29.15;;
38603;SDS011;24924;50.054;8.790;2023-02-12T09:16:27;64.60;;;28.87;;
38603;SDS011;24924;50.054;8.790;2023-02-12T09:18:53;71.43;;;30.35;;
38603;SDS011;24924;50.054;8.790;2023-02-12T09:21:19;75.68;;;30.15;;
38603;SDS011;24924;50.054;8.790;2023-02-12T09:23:46;68.05;;;28.52;;
38603;SDS011;24924;50.054;8.790;2023-02-12T09:26:15;71.13;;;29.63;;
38603;SDS011;24924;50.054;8.790;2023-02-12T09:28:45;59.87;;;28.40;;
38603;SDS011;24924;50.054;8.790;2023-02-12T09:31:12;62.53;;;29.25;;
38603;SDS011;24924;50.054;8.790;2023-02-12T09:33:40;67.85;;;29.95;;
38603;SDS011;24924;50.054;8.790;2023-02-12T09:36:07;69.20;;;30.08;;
38603;SDS011;24924;50.054;8.790;2023-02-12T09:38:41;66.47;;;29.60;;
38603;SDS011;24924;50.054;8.790;2023-02-12T09:46:58;64.20;;;29.13;;
38603;SDS011;24924;50.054;8.790;2023-02-12T09:52:16;66.70;;;27.30;;
38603;SDS011;24924;50.054;8.790;2023-02-12T09:54:44;66.53;;;28.03;;
38603;SDS011;24924;50.054;8.790;2023-02-12T09:57:33;66.22;;;27.63;;
38603;SDS011;24924;50.054;8.790;2023-02-12T10:00:04;64.18;;;27.13;;
38603;SDS011;24924;50.054;8.790;2023-02-12T10:02:35;67.57;;;27.38;;
38603;SDS011;24924;50.054;8.790;2023-02-12T10:05:04;70.22;;;27.30;;
38603;SDS011;24924;50.054;8.790;2023-02-12T10:10:19;63.20;;;26.40;;
38603;SDS011;24924;50.054;8.790;2023-02-12T10:13:05;59.53;;;25.45;;
38603;SDS011;24924;50.054;8.790;2023-02-12T10:21:07;67.27;;;25.77;;
38603;SDS011;24924;50.054;8.790;2023-02-12T10:26:39;57.90;;;25.63;;
38603;SDS011;24924;50.054;8.790;2023-02-12T10:29:16;60.92;;;24.70;;
38603;SDS011;24924;50.054;8.790;2023-02-12T10:31:47;61.03;;;24.83;;
38603;SDS011;24924;50.054;8.790;2023-02-12T10:34:20;59.27;;;24.97;;
38603;SDS011;24924;50.054;8.790;2023-02-12T10:36:50;65.35;;;26.45;;
38603;SDS011;24924;50.054;8.790;2023-02-12T10:39:21;68.55;;;27.23;;
38603;SDS011;24924;50.054;8.790;2023-02-12T10:44:26;59.97;;;24.92;;
38603;SDS011;24924;50.054;8.790;2023-02-12T10:46:52;62.37;;;25.03;;
38603;SDS011;24924;50.054;8.790;2023-02-12T10:49:18;57.00;;;24.42;;
38603;SDS011;24924;50.054;8.790;2023-02-12T10:57:05;57.63;;;24.67;;
38603;SDS011;24924;50.054;8.790;2023-02-12T10:59:41;58.47;;;24.73;;
38603;SDS011;24924;50.054;8.790;2023-02-12T11:02:19;56.17;;;25.50;;
38603;SDS011;24924;50.054;8.790;2023-02-12T11:04:56;57.88;;;26.10;;
38603;SDS011;24924;50.054;8.790;2023-02-12T11:07:23;57.33;;;25.08;;
38603;SDS011;24924;50.054;8.790;2023-02-12T11:09:51;54.80;;;24.63;;
38603;SDS011;24924;50.054;8.790;2023-02-12T11:12:22;54.83;;;24.47;;
38603;SDS011;24924;50.054;8.790;2023-02-12T11:15:00;53.83;;;23.88;;
38603;SDS011;24924;50.054;8.790;2023-02-12T11:17:42;55.75;;;24.50;;
38603;SDS011;24924;50.054;8.790;2023-02-12T11:23:01;53.17;;;22.50;;
38603;SDS011;24924;50.054;8.790;2023-02-12T11:25:31;51.33;;;23.33;;
38603;SDS011;24924;50.054;8.790;2023-02-12T11:30:26;47.63;;;22.60;;
38603;SDS011;24924;50.054;8.790;2023-02-12T11:32:52;49.47;;;23.00;;
38603;SDS011;24924;50.054;8.790;2023-02-12T11:35:22;48.10;;;23.20;;
38603;SDS011;24924;50.054;8.790;2023-02-12T11:37:56;45.93;;;23.53;;
38603;SDS011;24924;50.054;8.790;2023-02-12T11:40:27;49.50;;;22.85;;
38603;SDS011;24924;50.054;8.790;2023-02-12T11:43:02;46.97;;;22.23;;
38603;SDS011;24924;50.054;8.790;2023-02-12T11:45:31;44.28;;;21.85;;
38603;SDS011;24924;50.054;8.790;2023-02-12T11:50:48;42.03;;;21.17;;
38603;SDS011;24924;50.054;8.790;2023-02-12T11:53:19;51.42;;;22.85;;
38603;SDS011;24924;50.054;8.790;2023-02-12T11:55:52;43.35;;;22.52;;
38603;SDS011;24924;50.054;8.790;2023-02-12T11:58:24;44.35;;;21.73;;
38603;SDS011;24924;50.054;8.790;2023-02-12T12:03:46;42.37;;;20.73;;
38603;SDS011;24924;50.054;8.790;2023-02-12T12:06:24;39.63;;;20.45;;
38603;SDS011;24924;50.054;8.790;2023-02-12T12:11:33;35.30;;;18.30;;
38603;SDS011;24924;50.054;8.790;2023-02-12T12:16:43;33.70;;;18.50;;
38603;SDS011;24924;50.054;8.790;2023-02-12T12:19:39;36.03;;;18.15;;
38603;SDS011;24924;50.054;8.790;2023-02-12T12:25:25;38.92;;;20.05;;
38603;SDS011;24924;50.054;8.790;2023-02-12T12:28:39;41.92;;;22.13;;
38603;SDS011;24924;50.054;8.790;2023-02-12T12:34:10;43.10;;;22.67;;
38603;SDS011;24924;50.054;8.790;2023-02-12T12:36:44;39.20;;;22.20;;
38603;SDS011;24924;50.054;8.790;2023-02-12T12:56:17;40.03;;;20.90;;
38603;SDS011;24924;50.054;8.790;2023-02-12T13:13:48;39.73;;;20.70;;
38603;SDS011;24924;50.054;8.790;2023-02-12T13:16:32;40.83;;;20.65;;
38603;SDS011;24924;50.054;8.790;2023-02-12T13:19:10;40.38;;;20.45;;
38603;SDS011;24924;50.054;8.790;2023-02-12T13:24:29;37.28;;;18.92;;
38603;SDS011;24924;50.054;8.790;2023-02-12T13:27:11;35.90;;;19.83;;
38603;SDS011;24924;50.054;8.790;2023-02-12T13:29:48;39.88;;;20.17;;
38603;SDS011;24924;50.054;8.790;2023-02-12T13:32:31;41.35;;;20.42;;
38603;SDS011;24924;50.054;8.790;2023-02-12T13:35:00;39.08;;;20.23;;
38603;SDS011;24924;50.054;8.790;2023-02-12T13:37:37;38.60;;;19.88;;
38603;SDS011;24924;50.054;8.790;2023-02-12T13:40:14;36.93;;;18.67;;
38603;SDS011;24924;50.054;8.790;2023-02-12T13:51:14;33.38;;;17.90;;
38603;SDS011;24924;50.054;8.790;2023-02-12T13:53:46;33.20;;;17.63;;
38603;SDS011;24924;50.054;8.790;2023-02-12T13:59:43;25.90;;;15.70;;
38603;SDS011;24924;50.054;8.790;2023-02-12T14:04:56;26.70;;;15.23;;
38603;SDS011;24924;50.054;8.790;2023-02-12T14:07:40;27.90;;;16.37;;
38603;SDS011;24924;50.054;8.790;2023-02-12T14:10:18;25.70;;;14.40;;
38603;SDS011;24924;50.054;8.790;2023-02-12T14:12:46;27.65;;;14.43;;
38603;SDS011;24924;50.054;8.790;2023-02-12T14:15:33;25.55;;;14.88;;
38603;SDS011;24924;50.054;8.790;2023-02-12T14:18:04;26.42;;;15.55;;
38603;SDS011;24924;50.054;8.790;2023-02-12T14:20:31;28.47;;;17.20;;
38603;SDS011;24924;50.054;8.790;2023-02-12T14:23:00;26.50;;;15.27;;
38603;SDS011;24924;50.054;8.790;2023-02-12T14:28:23;26.02;;;15.20;;
38603;SDS011;24924;50.054;8.790;2023-02-12T14:33:41;22.80;;;12.70;;
38603;SDS011;24924;50.054;8.790;2023-02-12T14:36:15;24.73;;;13.15;;
38603;SDS011;24924;50.054;8.790;2023-02-12T14:52:01;23.92;;;13.18;;
38603;SDS011;24924;50.054;8.790;2023-02-12T14:54:30;22.33;;;11.70;;
38603;SDS011;24924;50.054;8.790;2023-02-12T14:57:06;18.60;;;11.37;;
38603;SDS011;24924;50.054;8.790;2023-02-12T14:59:44;22.27;;;11.57;;
38603;SDS011;24924;50.054;8.790;2023-02-12T15:02:15;22.75;;;12.35;;
38603;SDS011;24924;50.054;8.790;2023-02-12T15:04:52;19.42;;;11.25;;
38603;SDS011;24924;50.054;8.790;2023-02-12T15:07:30;22.15;;;12.30;;
38603;SDS011;24924;50.054;8.790;2023-02-12T15:10:03;19.93;;;11.97;;
38603;SDS011;24924;50.054;8.790;2023-02-12T15:12:37;23.60;;;12.38;;
38603;SDS011;24924;50.054;8.790;2023-02-12T15:17:57;21.77;;;11.82;;
38603;SDS011;24924;50.054;8.790;2023-02-12T15:20:33;22.80;;;12.30;;
38603;SDS011;24924;50.054;8.790;2023-02-12T15:23:23;22.53;;;11.77;;
38603;SDS011;24924;50.054;8.790;2023-02-12T15:25:58;22.15;;;12.27;;
38603;SDS011;24924;50.054;8.790;2023-02-12T15:28:27;23.80;;;12.00;;
38603;SDS011;24924;50.054;8.790;2023-02-12T15:31:01;20.17;;;11.32;;
38603;SDS011;24924;50.054;8.790;2023-02-12T15:33:31;23.00;;;11.98;;
38603;SDS011;24924;50.054;8.790;2023-02-12T15:35:58;22.33;;;11.67;;
38603;SDS011;24924;50.054;8.790;2023-02-12T15:38:32;24.42;;;12.65;;
38603;SDS011;24924;50.054;8.790;2023-02-12T15:41:01;20.92;;;11.27;;
38603;SDS011;24924;50.054;8.790;2023-02-12T15:43:28;19.50;;;11.20;;
38603;SDS011;24924;50.054;8.790;2023-02-12T15:45:59;21.58;;;10.85;;
38603;SDS011;24924;50.054;8.790;2023-02-12T15:48:31;22.27;;;11.80;;
38603;SDS011;24924;50.054;8.790;2023-02-12T15:53:52;19.00;;;9.70;;
38603;SDS011;24924;50.054;8.790;2023-02-12T15:56:19;20.10;;;10.32;;
38603;SDS011;24924;50.054;8.790;2023-02-12T15:58:53;19.92;;;10.52;;
38603;SDS011;24924;50.054;8.790;2023-02-12T16:01:22;19.57;;;11.00;;
38603;SDS011;24924;50.054;8.790;2023-02-12T16:03:51;18.58;;;10.23;;
38603;SDS011;24924;50.054;8.790;2023-02-12T16:06:20;21.35;;;10.70;;
38603;SDS011;24924;50.054;8.790;2023-02-12T16:08:48;21.25;;;10.63;;
38603;SDS011;24924;50.054;8.790;2023-02-12T16:11:20;20.23;;;10.45;;
38603;SDS011;24924;50.054;8.790;2023-02-12T16:13:48;20.60;;;10.83;;
38603;SDS011;24924;50.054;8.790;2023-02-12T16:16:23;23.63;;;10.48;;
38603;SDS011;24924;50.054;8.790;2023-02-12T16:19:05;21.15;;;11.15;;
38603;SDS011;24924;50.054;8.790;2023-02-12T16:21:43;19.98;;;10.73;;
38603;SDS011;24924;50.054;8.790;2023-02-12T16:26:56;23.30;;;11.63;;
38603;SDS011;24924;50.054;8.790;2023-02-12T16:29:26;23.35;;;11.13;;
38603;SDS011;24924;50.054;8.790;2023-02-12T16:31:56;21.73;;;10.82;;
38603;SDS011;24924;50.054;8.790;2023-02-12T16:34:28;25.30;;;12.10;;
38603;SDS011;24924;50.054;8.790;2023-02-12T16:36:59;26.52;;;12.52;;
38603;SDS011;24924;50.054;8.790;2023-02-12T16:42:17;24.30;;;12.52;;
38603;SDS011;24924;50.054;8.790;2023-02-12T16:44:49;25.08;;;13.00;;
38603;SDS011;24924;50.054;8.790;2023-02-12T16:47:18;25.77;;;12.47;;
38603;SDS011;24924;50.054;8.790;2023-02-12T16:49:58;24.90;;;12.90;;
38603;SDS011;24924;50.054;8.790;2023-02-12T16:52:33;23.70;;;12.52;;
38603;SDS011;24924;50.054;8.790;2023-02-12T16:55:03;27.23;;;12.55;;
38603;SDS011;24924;50.054;8.790;2023-02-12T16:57:31;24.10;;;11.68;;
38603;SDS011;24924;50.054;8.790;2023-02-12T16:59:57;23.90;;;12.03;;
38603;SDS011;24924;50.054;8.790;2023-02-12T17:02:23;25.15;;;12.27;;
38603;SDS011;24924;50.054;8.790;2023-02-12T17:04:49;25.27;;;12.43;;
38603;SDS011;24924;50.054;8.790;2023-02-12T17:07:17;24.05;;;12.23;;
38603;SDS011;24924;50.054;8.790;2023-02-12T17:09:45;28.10;;;12.38;;
38603;SDS011;24924;50.054;8.790;2023-02-12T17:12:10;25.00;;;12.00;;
38603;SDS011;24924;50.054;8.790;2023-02-12T17:14:36;23.33;;;11.77;;
38603;SDS011;24924;50.054;8.790;2023-02-12T17:17:02;25.27;;;12.02;;
38603;SDS011;24924;50.054;8.790;2023-02-12T17:19:28;25.30;;;12.03;;
38603;SDS011;24924;50.054;8.790;2023-02-12T17:21:54;24.50;;;12.40;;
38603;SDS011;24924;50.054;8.790;2023-02-12T17:24:27;25.40;;;12.95;;